Helas — C4AZ2 — position and weather

sailwx.info

Track history (hours):
 
Tides and Currents Weather Stations Pressure Air Temp Water Temp Dewpoint Dewpoint Depression Visibility Wind Speed Wind Dir Waves Ship Positions

Helas

Last reported at 2016-Aug-24 07:24 UTC. Time now 2016-Aug-25 16:47 UTC.
Position N 48°45' W 005°52'.

Length 89 m; draft 5.6 m.

Type: Cargo ship. MMSI: 210031000.

Date/timePositionNaut miles runAvg speedWind from/ knotsBaromVisibWave heightAir tempDewpointWater temp
2016-Aug-24 07:24N 48°45' W 005°52'8 7.9
2016-Aug-24 06:24N 48°52' W 005°47'17 8.4
2016-Aug-24 04:21N 49°01' W 005°25'8 9.5
2016-Aug-24 03:34N 49°05' W 005°15'1010.3
2016-Aug-24 02:33N 49°10' W 005°01'1110.6
2016-Aug-24 01:33N 49°16' W 004°47'1010.2
2016-Aug-24 00:34N 49°21' W 004°34'10 9.3
2016-Aug-23 23:31N 49°26' W 004°21'8 8.6
2016-Aug-23 22:33N 49°30' W 004°10'8 7.8
2016-Aug-23 21:34N 49°34' W 003°60'8 7.6
2016-Aug-23 20:34N 49°38' W 003°50'8 7.8
2016-Aug-23 19:30N 49°42' W 003°39'8 8.7
2016-Aug-23 18:33N 49°46' W 003°28'1010.1
2016-Aug-23 17:33N 49°52' W 003°15'1111.1
2016-Aug-23 16:33N 49°57' W 002°60'1111.2
2016-Aug-23 15:34N 50°01' W 002°43'53 7.5
2016-Aug-23 08:31N 50°16' W 001°24'1010.1
2016-Aug-23 07:33N 50°19' W 001°10'1212.1
2016-Aug-23 06:34N 50°22' W 000°52'1212.4
2016-Aug-23 05:34N 50°26' W 000°33'1211.7
2016-Aug-23 04:33N 50°29' W 000°15'1110.7
2016-Aug-23 03:34N 50°32' E 000°01'10 9.7
2016-Aug-23 02:34N 50°35' E 000°15'10 8.4
2016-Aug-23 01:21N 50°38' E 000°31'7 7.6
2016-Aug-23 00:26N 50°42' E 000°40'7 7.7
2016-Aug-22 23:33N 50°46' E 000°49'9 9.1
2016-Aug-22 22:34N 50°51' E 001°00'1110.6
2016-Aug-22 21:33N 50°57' E 001°14'1111.5
2016-Aug-22 20:33N 51°05' E 001°28'1010.0
2016-Aug-22 19:34N 51°11' E 001°40'8 8.4
2016-Aug-22 18:33N 51°18' E 001°48'7 7.2
2016-Aug-22 17:33N 51°24' E 001°53'6 6.3
2016-Aug-22 16:34N 51°30' E 001°58'5 5.3
2016-Aug-22 15:33N 51°34' E 002°04'6 5.6
2016-Aug-22 14:33N 51°38' E 002°10'7 7.4
2016-Aug-22 13:33N 51°43' E 002°18'9 9.3
2016-Aug-22 12:32N 51°50' E 002°29'1110.3
2016-Aug-22 11:27N 51°58' E 002°41'910.2
2016-Aug-22 10:31N 52°06' E 002°51'9 9.6
2016-Aug-22 09:33N 52°12' E 003°01'9 8.4
2016-Aug-22 08:31N 52°17' E 003°13'34 6.8
2016-Aug-22 03:31N 52°31' E 004°04'7 7.6
2016-Aug-22 02:33N 52°31' E 004°16'8 7.9
2016-Aug-22 01:34N 52°29' E 004°28'5 4.9
2016-Aug-22 00:34N 52°28' E 004°36'1 1.2
2016-Aug-21 23:33N 52°28' E 004°38'0 0.0
2016-Aug-21 22:31N 52°28' E 004°38'0 0.0
2016-Aug-21 21:31N 52°28' E 004°38'0 0.0
2016-Aug-21 19:31N 52°28' E 004°38'0 0.0
2016-Aug-21 18:31N 52°28' E 004°38'0 0.0
2016-Aug-21 17:31N 52°28' E 004°38'0 0.0
2016-Aug-21 16:31N 52°28' E 004°38'0 0.0
2016-Aug-21 15:31N 52°28' E 004°38'0 0.0
2016-Aug-21 14:28N 52°28' E 004°38'0 0.0
2016-Aug-21 13:31N 52°28' E 004°38'0 0.0
2016-Aug-21 12:31N 52°28' E 004°38'0 0.0
2016-Aug-21 11:31N 52°28' E 004°38'0 0.0
2016-Aug-21 10:31N 52°28' E 004°38'0 0.0
2016-Aug-21 09:31N 52°28' E 004°38'0 0.0
2016-Aug-21 08:31N 52°28' E 004°38'0 0.0
2016-Aug-21 07:31N 52°28' E 004°38'0 0.0
2016-Aug-21 06:28N 52°28' E 004°38'0 0.0
2016-Aug-21 05:31N 52°28' E 004°38'0 0.0
2016-Aug-21 04:34N 52°28' E 004°38'0 0.0
2016-Aug-21 03:33N 52°28' E 004°38'0 0.0
2016-Aug-21 02:30N 52°28' E 004°38'0 0.0
2016-Aug-21 01:33N 52°28' E 004°38'0 0.0
2016-Aug-21 00:33N 52°28' E 004°38'0 0.0
2016-Aug-20 23:33N 52°28' E 004°38'0 0.0
2016-Aug-20 22:27N 52°28' E 004°38'0 0.0
2016-Aug-20 21:33N 52°28' E 004°38'0 0.0
2016-Aug-20 20:33N 52°28' E 004°38'0 0.0
2016-Aug-20 19:33N 52°28' E 004°38'0 0.0
2016-Aug-20 18:30N 52°28' E 004°38'0 0.0
2016-Aug-20 17:33N 52°28' E 004°38'0 0.0
2016-Aug-20 16:33N 52°28' E 004°38'0 0.0
2016-Aug-20 15:27N 52°28' E 004°38'0 0.0
2016-Aug-20 14:33N 52°28' E 004°38'0 0.0
2016-Aug-20 13:33N 52°28' E 004°38'0 0.0
2016-Aug-20 12:30N 52°28' E 004°38'0 0.0
2016-Aug-20 11:33N 52°28' E 004°38'0 0.0
2016-Aug-20 10:33N 52°28' E 004°38'0 0.0
2016-Aug-20 09:33N 52°28' E 004°38'0 0.0
2016-Aug-20 08:33N 52°28' E 004°38'0 0.0
2016-Aug-20 07:33N 52°28' E 004°38'0 0.0
2016-Aug-20 06:33N 52°28' E 004°38'0 0.0
2016-Aug-20 05:33N 52°28' E 004°38'0 0.0
2016-Aug-20 04:33N 52°28' E 004°38'0 0.0
2016-Aug-20 03:33N 52°28' E 004°38'0 0.0
2016-Aug-20 02:33N 52°28' E 004°38'0 0.0
2016-Aug-20 01:33N 52°28' E 004°38'0 0.0
2016-Aug-20 00:33N 52°28' E 004°38'0 0.0
2016-Aug-19 23:33N 52°28' E 004°38'0 0.0
2016-Aug-19 22:33N 52°28' E 004°38'0 0.0
2016-Aug-19 21:33N 52°28' E 004°38'0 0.0
2016-Aug-19 20:32N 52°28' E 004°38'0 0.0
2016-Aug-19 19:32N 52°28' E 004°38'0 0.0
2016-Aug-19 18:32N 52°28' E 004°38'0 0.0
2016-Aug-19 17:32N 52°28' E 004°38'0 0.0
2016-Aug-19 16:32N 52°28' E 004°38'0 0.0
2016-Aug-19 15:32N 52°28' E 004°38'0 0.0
2016-Aug-19 14:32N 52°28' E 004°38'0 0.0
2016-Aug-19 13:32N 52°28' E 004°38'0 0.0
2016-Aug-19 12:32N 52°28' E 004°38'0 0.0
2016-Aug-19 11:32N 52°28' E 004°38'0 0.0
2016-Aug-19 10:29N 52°28' E 004°38'0 0.0
2016-Aug-19 09:32N 52°28' E 004°38'0 0.0
2016-Aug-19 08:32N 52°28' E 004°38'0 0.0
2016-Aug-19 07:32N 52°28' E 004°38'0 0.0
2016-Aug-19 06:32N 52°28' E 004°38'0 0.0
2016-Aug-19 05:32N 52°28' E 004°38'0 0.0
2016-Aug-19 04:32N 52°28' E 004°38'0 0.0
2016-Aug-19 03:32N 52°28' E 004°38'0 0.0
2016-Aug-19 02:32N 52°28' E 004°38'0 0.0
2016-Aug-19 01:29N 52°28' E 004°38'0 0.0
2016-Aug-19 00:32N 52°28' E 004°38'0 0.0
2016-Aug-18 23:32N 52°28' E 004°38'0 0.0
2016-Aug-18 22:32N 52°28' E 004°38'0 0.0
2016-Aug-18 21:32N 52°28' E 004°38'0 0.0
2016-Aug-18 20:32N 52°28' E 004°38'0 0.0
2016-Aug-18 19:32N 52°28' E 004°38'0 0.0
2016-Aug-18 18:32N 52°28' E 004°38'0 0.0
2016-Aug-18 17:32N 52°28' E 004°38'0 0.0
2016-Aug-18 16:32N 52°28' E 004°38'0 0.0
2016-Aug-18 15:32N 52°28' E 004°38'0 0.0
2016-Aug-18 14:32N 52°28' E 004°38'0 0.0
2016-Aug-18 13:31N 52°28' E 004°38'0 0.0
2016-Aug-18 12:28N 52°28' E 004°38'0 0.0
2016-Aug-18 11:31N 52°28' E 004°38'0 0.0
2016-Aug-18 10:31N 52°28' E 004°38'0 0.0
2016-Aug-18 09:31N 52°28' E 004°38'0 0.0
2016-Aug-18 08:28N 52°28' E 004°38'0 0.0
2016-Aug-18 07:31N 52°28' E 004°38'0 0.0
2016-Aug-18 06:31N 52°28' E 004°38'0 0.0
2016-Aug-18 05:28N 52°28' E 004°38'0 0.0
2016-Aug-18 04:31N 52°28' E 004°38'0 0.0
2016-Aug-18 03:25N 52°28' E 004°38'0 0.0
2016-Aug-18 02:31N 52°28' E 004°38'0 0.0
2016-Aug-18 01:31N 52°28' E 004°38'0 0.0
2016-Aug-18 00:31N 52°28' E 004°38'0 0.0
2016-Aug-17 23:31N 52°28' E 004°38'0 0.0
2016-Aug-17 22:31N 52°28' E 004°38'0 0.0
2016-Aug-17 21:31N 52°28' E 004°38'0 0.0
2016-Aug-17 20:31N 52°28' E 004°38'0 0.0
2016-Aug-17 19:31N 52°28' E 004°38'0 0.0
2016-Aug-17 18:31N 52°28' E 004°38'0 0.0
2016-Aug-17 17:31N 52°28' E 004°38'0 0.0
2016-Aug-17 16:31N 52°28' E 004°38'0 0.0
2016-Aug-17 15:31N 52°28' E 004°38'0 0.0
2016-Aug-17 14:31N 52°28' E 004°38'0 0.0
2016-Aug-17 13:31N 52°28' E 004°38'0 0.1
2016-Aug-17 12:33N 52°28' E 004°38'0 0.0
2016-Aug-17 11:33N 52°28' E 004°38'0 0.0
2016-Aug-17 10:33N 52°28' E 004°38'0 0.0
2016-Aug-17 09:30N 52°28' E 004°38'0 0.0
2016-Aug-17 08:33N 52°28' E 004°38'0 0.0
2016-Aug-17 07:33N 52°28' E 004°38'0 0.0
2016-Aug-17 06:33N 52°28' E 004°38'0 0.0
2016-Aug-17 05:33N 52°28' E 004°38'0 0.0
2016-Aug-17 04:30N 52°28' E 004°38'0 0.0
2016-Aug-17 03:33N 52°28' E 004°38'0 0.0
2016-Aug-17 02:33N 52°28' E 004°38'0 0.0
2016-Aug-17 01:33N 52°28' E 004°38'0 0.0
2016-Aug-17 00:33N 52°28' E 004°38'0 0.0
2016-Aug-16 23:33N 52°28' E 004°38'0 0.0
2016-Aug-16 22:30N 52°28' E 004°38'0 0.0
2016-Aug-16 21:33N 52°28' E 004°38'0 0.0
2016-Aug-16 20:33N 52°28' E 004°38'0 0.0
2016-Aug-16 19:33N 52°28' E 004°38'0 0.0
2016-Aug-16 18:33N 52°28' E 004°38'0 0.0
2016-Aug-16 17:33N 52°28' E 004°38'0 0.0
2016-Aug-16 16:33N 52°28' E 004°38'0 0.0
2016-Aug-16 15:32N 52°28' E 004°38'0 0.0
2016-Aug-16 14:32N 52°28' E 004°38'0 0.0
2016-Aug-16 13:32N 52°28' E 004°38'0 0.0
2016-Aug-16 12:32N 52°28' E 004°38'0 0.0
2016-Aug-16 11:32N 52°28' E 004°38'0 0.0
2016-Aug-16 10:29N 52°28' E 004°38'0 0.0
2016-Aug-16 09:32N 52°28' E 004°38'0 0.0
2016-Aug-16 08:32N 52°28' E 004°38'0 0.0
2016-Aug-16 07:32N 52°28' E 004°38'0 0.0
2016-Aug-16 04:32N 52°28' E 004°38'0 0.0
2016-Aug-16 03:29N 52°28' E 004°38'0 0.0
2016-Aug-16 02:32N 52°28' E 004°38'0 0.0
2016-Aug-16 01:32N 52°28' E 004°38'0 0.0
2016-Aug-16 00:32N 52°28' E 004°38'0 0.0
2016-Aug-15 23:32N 52°28' E 004°38'0 0.0
2016-Aug-15 22:32N 52°28' E 004°38'0 0.0
2016-Aug-15 21:32N 52°28' E 004°38'0 0.0
2016-Aug-15 20:29N 52°28' E 004°38'0 0.0
2016-Aug-15 19:32N 52°28' E 004°38'0 0.0
2016-Aug-15 18:32N 52°28' E 004°38'0 0.0
2016-Aug-15 17:32N 52°28' E 004°38'0 0.0
2016-Aug-15 16:32N 52°28' E 004°38'0 0.0
2016-Aug-15 15:29N 52°28' E 004°38'0 0.0
2016-Aug-15 14:32N 52°28' E 004°38'0 0.0
2016-Aug-15 12:32N 52°28' E 004°38'0 0.0
2016-Aug-15 11:32N 52°28' E 004°38'0 0.0
2016-Aug-15 10:32N 52°28' E 004°38'0 0.0
2016-Aug-15 09:32N 52°28' E 004°38'0 0.0
2016-Aug-15 08:31N 52°28' E 004°38'0 0.0
2016-Aug-15 07:31N 52°28' E 004°38'0 0.0
2016-Aug-15 06:31N 52°28' E 004°38'0 0.0
2016-Aug-15 04:28N 52°28' E 004°38'0 0.0
2016-Aug-15 03:28N 52°28' E 004°38'0 0.0
2016-Aug-15 02:31N 52°28' E 004°38'0 0.0
2016-Aug-15 01:31N 52°28' E 004°38'0 0.0
2016-Aug-15 00:31N 52°28' E 004°38'0 0.0
2016-Aug-14 23:28N 52°28' E 004°38'0 0.0
2016-Aug-14 22:31N 52°28' E 004°38'0 0.0
2016-Aug-14 21:31N 52°28' E 004°38'0 0.0
2016-Aug-14 20:31N 52°28' E 004°38'0 0.0
2016-Aug-14 19:31N 52°28' E 004°38'0 0.0
2016-Aug-14 18:31N 52°28' E 004°38'0 0.0
2016-Aug-14 17:31N 52°28' E 004°38'0 0.0
2016-Aug-14 16:31N 52°28' E 004°38'0 0.0
2016-Aug-14 15:31N 52°28' E 004°38'0 0.0
2016-Aug-14 14:31N 52°28' E 004°38'0 0.0
2016-Aug-14 13:31N 52°28' E 004°38'0 0.0
2016-Aug-14 12:31N 52°28' E 004°38'0 0.0
2016-Aug-14 11:31N 52°28' E 004°38'0 0.0
2016-Aug-14 10:31N 52°28' E 004°38'0 0.0
2016-Aug-14 09:28N 52°28' E 004°38'0 0.0
2016-Aug-14 08:31N 52°28' E 004°38'0 0.0
2016-Aug-14 07:28N 52°28' E 004°38'  
Track history (hours):
 
Tides and Currents Weather Stations Pressure Air Temp Water Temp Dewpoint Dewpoint Depression Visibility Wind Speed Wind Dir Waves Ship Positions

Helas

Last reported at 2016-Aug-24 07:24 UTC. Time now 2016-Aug-25 16:47 UTC.
Position N 48°45' W 005°52'.

Length 89 m; draft 5.6 m.

Type: Cargo ship. MMSI: 210031000.

Date/timePositionNaut miles runAvg speedWind from/ knotsBaromVisibWave heightAir tempDewpointWater temp
2016-Aug-24 07:24N 48°45' W 005°52'8 7.9
2016-Aug-24 06:24N 48°52' W 005°47'17 8.4
2016-Aug-24 04:21N 49°01' W 005°25'8 9.5
2016-Aug-24 03:34N 49°05' W 005°15'1010.3
2016-Aug-24 02:33N 49°10' W 005°01'1110.6
2016-Aug-24 01:33N 49°16' W 004°47'1010.2
2016-Aug-24 00:34N 49°21' W 004°34'10 9.3
2016-Aug-23 23:31N 49°26' W 004°21'8 8.6
2016-Aug-23 22:33N 49°30' W 004°10'8 7.8
2016-Aug-23 21:34N 49°34' W 003°60'8 7.6
2016-Aug-23 20:34N 49°38' W 003°50'8 7.8
2016-Aug-23 19:30N 49°42' W 003°39'8 8.7
2016-Aug-23 18:33N 49°46' W 003°28'1010.1
2016-Aug-23 17:33N 49°52' W 003°15'1111.1
2016-Aug-23 16:33N 49°57' W 002°60'1111.2
2016-Aug-23 15:34N 50°01' W 002°43'53 7.5
2016-Aug-23 08:31N 50°16' W 001°24'1010.1
2016-Aug-23 07:33N 50°19' W 001°10'1212.1
2016-Aug-23 06:34N 50°22' W 000°52'1212.4
2016-Aug-23 05:34N 50°26' W 000°33'1211.7
2016-Aug-23 04:33N 50°29' W 000°15'1110.7
2016-Aug-23 03:34N 50°32' E 000°01'10 9.7
2016-Aug-23 02:34N 50°35' E 000°15'10 8.4
2016-Aug-23 01:21N 50°38' E 000°31'7 7.6
2016-Aug-23 00:26N 50°42' E 000°40'7 7.7
2016-Aug-22 23:33N 50°46' E 000°49'9 9.1
2016-Aug-22 22:34N 50°51' E 001°00'1110.6
2016-Aug-22 21:33N 50°57' E 001°14'1111.5
2016-Aug-22 20:33N 51°05' E 001°28'1010.0
2016-Aug-22 19:34N 51°11' E 001°40'8 8.4
2016-Aug-22 18:33N 51°18' E 001°48'7 7.2
2016-Aug-22 17:33N 51°24' E 001°53'6 6.3
2016-Aug-22 16:34N 51°30' E 001°58'5 5.3
2016-Aug-22 15:33N 51°34' E 002°04'6 5.6
2016-Aug-22 14:33N 51°38' E 002°10'7 7.4
2016-Aug-22 13:33N 51°43' E 002°18'9 9.3
2016-Aug-22 12:32N 51°50' E 002°29'1110.3
2016-Aug-22 11:27N 51°58' E 002°41'910.2
2016-Aug-22 10:31N 52°06' E 002°51'9 9.6
2016-Aug-22 09:33N 52°12' E 003°01'9 8.4
2016-Aug-22 08:31N 52°17' E 003°13'34 6.8
2016-Aug-22 03:31N 52°31' E 004°04'7 7.6
2016-Aug-22 02:33N 52°31' E 004°16'8 7.9
2016-Aug-22 01:34N 52°29' E 004°28'5 4.9
2016-Aug-22 00:34N 52°28' E 004°36'1 1.2
2016-Aug-21 23:33N 52°28' E 004°38'0 0.0
2016-Aug-21 22:31N 52°28' E 004°38'0 0.0
2016-Aug-21 21:31N 52°28' E 004°38'0 0.0
2016-Aug-21 19:31N 52°28' E 004°38'0 0.0
2016-Aug-21 18:31N 52°28' E 004°38'0 0.0
2016-Aug-21 17:31N 52°28' E 004°38'0 0.0
2016-Aug-21 16:31N 52°28' E 004°38'0 0.0
2016-Aug-21 15:31N 52°28' E 004°38'0 0.0
2016-Aug-21 14:28N 52°28' E 004°38'0 0.0
2016-Aug-21 13:31N 52°28' E 004°38'0 0.0
2016-Aug-21 12:31N 52°28' E 004°38'0 0.0
2016-Aug-21 11:31N 52°28' E 004°38'0 0.0
2016-Aug-21 10:31N 52°28' E 004°38'0 0.0
2016-Aug-21 09:31N 52°28' E 004°38'0 0.0
2016-Aug-21 08:31N 52°28' E 004°38'0 0.0
2016-Aug-21 07:31N 52°28' E 004°38'0 0.0
2016-Aug-21 06:28N 52°28' E 004°38'0 0.0
2016-Aug-21 05:31N 52°28' E 004°38'0 0.0
2016-Aug-21 04:34N 52°28' E 004°38'0 0.0
2016-Aug-21 03:33N 52°28' E 004°38'0 0.0
2016-Aug-21 02:30N 52°28' E 004°38'0 0.0
2016-Aug-21 01:33N 52°28' E 004°38'0 0.0
2016-Aug-21 00:33N 52°28' E 004°38'0 0.0
2016-Aug-20 23:33N 52°28' E 004°38'0 0.0
2016-Aug-20 22:27N 52°28' E 004°38'0 0.0
2016-Aug-20 21:33N 52°28' E 004°38'0 0.0
2016-Aug-20 20:33N 52°28' E 004°38'0 0.0
2016-Aug-20 19:33N 52°28' E 004°38'0 0.0
2016-Aug-20 18:30N 52°28' E 004°38'0 0.0
2016-Aug-20 17:33N 52°28' E 004°38'0 0.0
2016-Aug-20 16:33N 52°28' E 004°38'0 0.0
2016-Aug-20 15:27N 52°28' E 004°38'0 0.0
2016-Aug-20 14:33N 52°28' E 004°38'0 0.0
2016-Aug-20 13:33N 52°28' E 004°38'0 0.0
2016-Aug-20 12:30N 52°28' E 004°38'0 0.0
2016-Aug-20 11:33N 52°28' E 004°38'0 0.0
2016-Aug-20 10:33N 52°28' E 004°38'0 0.0
2016-Aug-20 09:33N 52°28' E 004°38'0 0.0
2016-Aug-20 08:33N 52°28' E 004°38'0 0.0
2016-Aug-20 07:33N 52°28' E 004°38'0 0.0
2016-Aug-20 06:33N 52°28' E 004°38'0 0.0
2016-Aug-20 05:33N 52°28' E 004°38'0 0.0
2016-Aug-20 04:33N 52°28' E 004°38'0 0.0
2016-Aug-20 03:33N 52°28' E 004°38'0 0.0
2016-Aug-20 02:33N 52°28' E 004°38'0 0.0
2016-Aug-20 01:33N 52°28' E 004°38'0 0.0
2016-Aug-20 00:33N 52°28' E 004°38'0 0.0
2016-Aug-19 23:33N 52°28' E 004°38'0 0.0
2016-Aug-19 22:33N 52°28' E 004°38'0 0.0
2016-Aug-19 21:33N 52°28' E 004°38'0 0.0
2016-Aug-19 20:32N 52°28' E 004°38'0 0.0
2016-Aug-19 19:32N 52°28' E 004°38'0 0.0
2016-Aug-19 18:32N 52°28' E 004°38'0 0.0
2016-Aug-19 17:32N 52°28' E 004°38'0 0.0
2016-Aug-19 16:32N 52°28' E 004°38'0 0.0
2016-Aug-19 15:32N 52°28' E 004°38'0 0.0
2016-Aug-19 14:32N 52°28' E 004°38'0 0.0
2016-Aug-19 13:32N 52°28' E 004°38'0 0.0
2016-Aug-19 12:32N 52°28' E 004°38'0 0.0
2016-Aug-19 11:32N 52°28' E 004°38'0 0.0
2016-Aug-19 10:29N 52°28' E 004°38'0 0.0
2016-Aug-19 09:32N 52°28' E 004°38'0 0.0
2016-Aug-19 08:32N 52°28' E 004°38'0 0.0
2016-Aug-19 07:32N 52°28' E 004°38'0 0.0
2016-Aug-19 06:32N 52°28' E 004°38'0 0.0
2016-Aug-19 05:32N 52°28' E 004°38'0 0.0
2016-Aug-19 04:32N 52°28' E 004°38'0 0.0
2016-Aug-19 03:32N 52°28' E 004°38'0 0.0
2016-Aug-19 02:32N 52°28' E 004°38'0 0.0
2016-Aug-19 01:29N 52°28' E 004°38'0 0.0
2016-Aug-19 00:32N 52°28' E 004°38'0 0.0
2016-Aug-18 23:32N 52°28' E 004°38'0 0.0
2016-Aug-18 22:32N 52°28' E 004°38'0 0.0
2016-Aug-18 21:32N 52°28' E 004°38'0 0.0
2016-Aug-18 20:32N 52°28' E 004°38'0 0.0
2016-Aug-18 19:32N 52°28' E 004°38'0 0.0
2016-Aug-18 18:32N 52°28' E 004°38'0 0.0
2016-Aug-18 17:32N 52°28' E 004°38'0 0.0
2016-Aug-18 16:32N 52°28' E 004°38'0 0.0
2016-Aug-18 15:32N 52°28' E 004°38'0 0.0
2016-Aug-18 14:32N 52°28' E 004°38'0 0.0
2016-Aug-18 13:31N 52°28' E 004°38'0 0.0
2016-Aug-18 12:28N 52°28' E 004°38'0 0.0
2016-Aug-18 11:31N 52°28' E 004°38'0 0.0
2016-Aug-18 10:31N 52°28' E 004°38'0 0.0
2016-Aug-18 09:31N 52°28' E 004°38'0 0.0
2016-Aug-18 08:28N 52°28' E 004°38'0 0.0
2016-Aug-18 07:31N 52°28' E 004°38'0 0.0
2016-Aug-18 06:31N 52°28' E 004°38'0 0.0
2016-Aug-18 05:28N 52°28' E 004°38'0 0.0
2016-Aug-18 04:31N 52°28' E 004°38'0 0.0
2016-Aug-18 03:25N 52°28' E 004°38'0 0.0
2016-Aug-18 02:31N 52°28' E 004°38'0 0.0
2016-Aug-18 01:31N 52°28' E 004°38'0 0.0
2016-Aug-18 00:31N 52°28' E 004°38'0 0.0
2016-Aug-17 23:31N 52°28' E 004°38'0 0.0
2016-Aug-17 22:31N 52°28' E 004°38'0 0.0
2016-Aug-17 21:31N 52°28' E 004°38'0 0.0
2016-Aug-17 20:31N 52°28' E 004°38'0 0.0
2016-Aug-17 19:31N 52°28' E 004°38'0 0.0
2016-Aug-17 18:31N 52°28' E 004°38'0 0.0
2016-Aug-17 17:31N 52°28' E 004°38'0 0.0
2016-Aug-17 16:31N 52°28' E 004°38'0 0.0
2016-Aug-17 15:31N 52°28' E 004°38'0 0.0
2016-Aug-17 14:31N 52°28' E 004°38'0 0.0
2016-Aug-17 13:31N 52°28' E 004°38'0 0.1
2016-Aug-17 12:33N 52°28' E 004°38'0 0.0
2016-Aug-17 11:33N 52°28' E 004°38'0 0.0
2016-Aug-17 10:33N 52°28' E 004°38'0 0.0
2016-Aug-17 09:30N 52°28' E 004°38'0 0.0
2016-Aug-17 08:33N 52°28' E 004°38'0 0.0
2016-Aug-17 07:33N 52°28' E 004°38'0 0.0
2016-Aug-17 06:33N 52°28' E 004°38'0 0.0
2016-Aug-17 05:33N 52°28' E 004°38'0 0.0
2016-Aug-17 04:30N 52°28' E 004°38'0 0.0
2016-Aug-17 03:33N 52°28' E 004°38'0 0.0
2016-Aug-17 02:33N 52°28' E 004°38'0 0.0
2016-Aug-17 01:33N 52°28' E 004°38'0 0.0
2016-Aug-17 00:33N 52°28' E 004°38'0 0.0
2016-Aug-16 23:33N 52°28' E 004°38'0 0.0
2016-Aug-16 22:30N 52°28' E 004°38'0 0.0
2016-Aug-16 21:33N 52°28' E 004°38'0 0.0
2016-Aug-16 20:33N 52°28' E 004°38'0 0.0
2016-Aug-16 19:33N 52°28' E 004°38'0 0.0
2016-Aug-16 18:33N 52°28' E 004°38'0 0.0
2016-Aug-16 17:33N 52°28' E 004°38'0 0.0
2016-Aug-16 16:33N 52°28' E 004°38'0 0.0
2016-Aug-16 15:32N 52°28' E 004°38'0 0.0
2016-Aug-16 14:32N 52°28' E 004°38'0 0.0
2016-Aug-16 13:32N 52°28' E 004°38'0 0.0
2016-Aug-16 12:32N 52°28' E 004°38'0 0.0
2016-Aug-16 11:32N 52°28' E 004°38'0 0.0
2016-Aug-16 10:29N 52°28' E 004°38'0 0.0
2016-Aug-16 09:32N 52°28' E 004°38'0 0.0
2016-Aug-16 08:32N 52°28' E 004°38'0 0.0
2016-Aug-16 07:32N 52°28' E 004°38'0 0.0
2016-Aug-16 04:32N 52°28' E 004°38'0 0.0
2016-Aug-16 03:29N 52°28' E 004°38'0 0.0
2016-Aug-16 02:32N 52°28' E 004°38'0 0.0
2016-Aug-16 01:32N 52°28' E 004°38'0 0.0
2016-Aug-16 00:32N 52°28' E 004°38'0 0.0
2016-Aug-15 23:32N 52°28' E 004°38'0 0.0
2016-Aug-15 22:32N 52°28' E 004°38'0 0.0
2016-Aug-15 21:32N 52°28' E 004°38'0 0.0
2016-Aug-15 20:29N 52°28' E 004°38'0 0.0
2016-Aug-15 19:32N 52°28' E 004°38'0 0.0
2016-Aug-15 18:32N 52°28' E 004°38'0 0.0
2016-Aug-15 17:32N 52°28' E 004°38'0 0.0
2016-Aug-15 16:32N 52°28' E 004°38'0 0.0
2016-Aug-15 15:29N 52°28' E 004°38'0 0.0
2016-Aug-15 14:32N 52°28' E 004°38'0 0.0
2016-Aug-15 12:32N 52°28' E 004°38'0 0.0
2016-Aug-15 11:32N 52°28' E 004°38'0 0.0
2016-Aug-15 10:32N 52°28' E 004°38'0 0.0
2016-Aug-15 09:32N 52°28' E 004°38'0 0.0
2016-Aug-15 08:31N 52°28' E 004°38'0 0.0
2016-Aug-15 07:31N 52°28' E 004°38'0 0.0
2016-Aug-15 06:31N 52°28' E 004°38'0 0.0
2016-Aug-15 04:28N 52°28' E 004°38'0 0.0
2016-Aug-15 03:28N 52°28' E 004°38'0 0.0
2016-Aug-15 02:31N 52°28' E 004°38'0 0.0
2016-Aug-15 01:31N 52°28' E 004°38'0 0.0
2016-Aug-15 00:31N 52°28' E 004°38'0 0.0
2016-Aug-14 23:28N 52°28' E 004°38'0 0.0
2016-Aug-14 22:31N 52°28' E 004°38'0 0.0
2016-Aug-14 21:31N 52°28' E 004°38'0 0.0
2016-Aug-14 20:31N 52°28' E 004°38'0 0.0
2016-Aug-14 19:31N 52°28' E 004°38'0 0.0
2016-Aug-14 18:31N 52°28' E 004°38'0 0.0
2016-Aug-14 17:31N 52°28' E 004°38'0 0.0
2016-Aug-14 16:31N 52°28' E 004°38'0 0.0
2016-Aug-14 15:31N 52°28' E 004°38'0 0.0
2016-Aug-14 14:31N 52°28' E 004°38'0 0.0
2016-Aug-14 13:31N 52°28' E 004°38'0 0.0
2016-Aug-14 12:31N 52°28' E 004°38'0 0.0
2016-Aug-14 11:31N 52°28' E 004°38'0 0.0
2016-Aug-14 10:31N 52°28' E 004°38'0 0.0
2016-Aug-14 09:28N 52°28' E 004°38'0 0.0
2016-Aug-14 08:31N 52°28' E 004°38'0 0.0
2016-Aug-14 07:28N 52°28' E 004°38'  

Dump ship's entire track history